createdAt,value
2023-04-18T00:00:29.571Z,99703.63
2023-04-18T00:02:56.477Z,99717.38
2023-04-18T00:05:23.622Z,99711.31
2023-04-18T00:07:51.443Z,99709.13
2023-04-18T00:10:18.298Z,99705.44
2023-04-18T00:12:45.155Z,99710.53
2023-04-18T00:15:12.379Z,99709.06
2023-04-18T00:17:39.730Z,99701.47
2023-04-18T00:20:10.504Z,99704.91
2023-04-18T00:22:42.628Z,99700.47
2023-04-18T00:25:10.471Z,99699.22
2023-04-18T00:27:38.603Z,99700.91
2023-04-18T00:30:06.444Z,99697.47
2023-04-18T00:32:32.970Z,99700.41
2023-04-18T00:34:59.698Z,99697.13
2023-04-18T00:37:27.174Z,99697.72
2023-04-18T00:39:54.054Z,99698.69
2023-04-18T00:42:21.995Z,99694.72
2023-04-18T00:44:49.078Z,99696.50
2023-04-18T00:47:17.586Z,99702.63
2023-04-18T00:49:45.381Z,99697.91
2023-04-18T00:52:12.598Z,99691.78
2023-04-18T00:54:40.787Z,99692.91
2023-04-18T00:57:08.147Z,99695.75
2023-04-18T00:59:35.654Z,99692.34
2023-04-18T01:02:05.399Z,99690.13
2023-04-18T01:04:32.636Z,99696.19
2023-04-18T01:07:01.035Z,99696.03
2023-04-18T01:09:28.286Z,99693.50
2023-04-18T01:11:54.952Z,99699.09
2023-04-18T01:14:21.848Z,99690.59
2023-04-18T01:16:48.700Z,99693.50
2023-04-18T01:19:17.465Z,99695.66
2023-04-18T01:21:44.120Z,99700.78
2023-04-18T01:24:12.819Z,99693.81
2023-04-18T01:26:40.059Z,99686.34
2023-04-18T01:29:07.045Z,99683.13
2023-04-18T01:31:38.198Z,99683.69
2023-04-18T01:34:06.100Z,99685.97
2023-04-18T01:36:33.204Z,99679.59
2023-04-18T01:39:00.847Z,99682.59
2023-04-18T01:41:29.810Z,99685.38
2023-04-18T01:43:56.392Z,99692.16
2023-04-18T01:46:23.091Z,99690.94
2023-04-18T01:48:49.861Z,99687.53
2023-04-18T01:51:16.391Z,99695.03
2023-04-18T01:53:43.029Z,99683.97
2023-04-18T01:56:10.271Z,99696.63
2023-04-18T01:58:37.462Z,99685.03
2023-04-18T02:01:04.336Z,99688.47
2023-04-18T02:03:31.146Z,99686.19
2023-04-18T02:05:57.880Z,99686.03
2023-04-18T02:08:24.510Z,99681.38
2023-04-18T02:10:51.053Z,99674.38
2023-04-18T02:13:17.979Z,99687.56
2023-04-18T02:15:46.041Z,99687.22
2023-04-18T02:18:12.630Z,99689.38
2023-04-18T02:20:39.408Z,99685.00
2023-04-18T02:23:06.356Z,99689.53
2023-04-18T02:25:33.028Z,99682.13
2023-04-18T02:27:59.574Z,99689.03
2023-04-18T02:30:26.636Z,99679.00
2023-04-18T02:32:59.354Z,99682.69
2023-04-18T02:35:28.255Z,99692.16
2023-04-18T02:37:54.787Z,99687.50
2023-04-18T02:40:21.355Z,99676.19
2023-04-18T02:42:48.006Z,99679.06
2023-04-18T02:45:14.760Z,99687.28
2023-04-18T02:47:53.689Z,99682.06
2023-04-18T02:50:21.727Z,99685.94
2023-04-18T02:52:48.389Z,99690.44
2023-04-18T02:55:15.295Z,99671.75
2023-04-18T02:57:41.869Z,99676.16
2023-04-18T03:00:09.075Z,99687.06
2023-04-18T03:02:36.107Z,99685.50
2023-04-18T03:05:03.113Z,99681.47
2023-04-18T03:07:31.022Z,99687.16
2023-04-18T03:09:57.795Z,99694.41
2023-04-18T03:12:24.474Z,99695.69
2023-04-18T03:14:51.067Z,99696.91
2023-04-18T03:17:18.338Z,99690.84
2023-04-18T03:19:46.520Z,99685.69
2023-04-18T03:22:14.224Z,99694.59
2023-04-18T03:24:40.931Z,99690.84
2023-04-18T03:27:07.532Z,99683.28
2023-04-18T03:29:34.253Z,99680.94
2023-04-18T03:32:00.895Z,99682.69
2023-04-18T03:34:29.382Z,99681.69
2023-04-18T03:36:56.128Z,99685.56
2023-04-18T03:39:22.796Z,99675.44
2023-04-18T03:41:49.971Z,99672.88
2023-04-18T03:44:16.779Z,99680.06
2023-04-18T03:46:43.517Z,99684.13
2023-04-18T03:49:10.225Z,99675.16
2023-04-18T03:51:44.365Z,99670.38
2023-04-18T03:54:10.889Z,99678.94
2023-04-18T03:56:37.741Z,99675.31
2023-04-18T03:59:04.313Z,99681.59
2023-04-18T04:01:30.979Z,99681.06
2023-04-18T04:03:57.750Z,99687.22
2023-04-18T04:06:24.665Z,99687.09
2023-04-18T04:08:51.186Z,99690.63
2023-04-18T04:11:17.835Z,99684.06
2023-04-18T04:13:44.376Z,99692.88
2023-04-18T04:16:11.019Z,99678.16
2023-04-18T04:18:37.631Z,99690.19
2023-04-18T04:21:05.872Z,99689.97
2023-04-18T04:23:33.262Z,99685.84
2023-04-18T04:26:03.901Z,99681.69
2023-04-18T04:28:31.657Z,99697.94
2023-04-18T04:30:58.325Z,99696.03
2023-04-18T04:33:28.820Z,99698.09
2023-04-18T04:35:56.523Z,99698.16
2023-04-18T04:38:23.118Z,99704.84
2023-04-18T04:40:50.204Z,99699.50
2023-04-18T04:43:17.291Z,99701.94
2023-04-18T04:45:44.678Z,99701.41
2023-04-18T04:48:11.497Z,99700.97
2023-04-18T04:50:41.441Z,99704.31
2023-04-18T04:53:08.744Z,99703.47
2023-04-18T04:55:35.608Z,99712.03
2023-04-18T04:58:02.340Z,99702.19
2023-04-18T05:00:28.914Z,99703.47
2023-04-18T05:02:57.658Z,99708.78
2023-04-18T05:05:24.543Z,99711.44
2023-04-18T05:07:51.137Z,99712.38
2023-04-18T05:10:17.796Z,99717.78
2023-04-18T05:12:44.599Z,99710.84
2023-04-18T05:15:11.366Z,99715.97
2023-04-18T05:17:38.027Z,99704.72
2023-04-18T05:20:05.767Z,99710.19
2023-04-18T05:22:32.746Z,99711.81
2023-04-18T05:24:59.481Z,99698.50
2023-04-18T05:27:26.189Z,99709.41
2023-04-18T05:29:52.813Z,99711.63
2023-04-18T05:32:19.759Z,99712.22
2023-04-18T05:34:46.995Z,99707.41
2023-04-18T05:37:13.716Z,99722.09
2023-04-18T05:39:40.867Z,99723.63
2023-04-18T05:42:07.764Z,99722.75
2023-04-18T05:44:34.345Z,99725.38
2023-04-18T05:47:01.122Z,99725.59
2023-04-18T05:49:27.801Z,99723.22
2023-04-18T05:51:54.317Z,99729.81
2023-04-18T05:54:25.979Z,99725.66
2023-04-18T05:56:52.571Z,99720.94
2023-04-18T05:59:20.603Z,99722.94
2023-04-18T06:01:47.221Z,99723.34
2023-04-18T06:04:14.268Z,99724.88
2023-04-18T06:06:41.416Z,99732.66
2023-04-18T06:09:08.386Z,99728.66
2023-04-18T06:11:35.819Z,99738.19
2023-04-18T06:14:02.758Z,99731.53
2023-04-18T06:16:29.543Z,99736.28
2023-04-18T06:18:56.174Z,99726.41
2023-04-18T06:21:22.790Z,99740.88
2023-04-18T06:23:49.370Z,99741.91
2023-04-18T06:26:16.013Z,99741.81
2023-04-18T06:28:42.679Z,99735.41
2023-04-18T06:31:09.380Z,99730.56
2023-04-18T06:33:37.771Z,99746.19
2023-04-18T06:36:05.505Z,99738.53
2023-04-18T06:38:32.501Z,99745.03
2023-04-18T06:40:59.043Z,99738.84
2023-04-18T06:43:25.840Z,99744.41
2023-04-18T06:45:52.541Z,99737.81
2023-04-18T06:48:19.120Z,99741.38
2023-04-18T06:50:45.741Z,99743.38
2023-04-18T06:53:12.510Z,99743.69
2023-04-18T06:55:39.097Z,99742.44
2023-04-18T06:58:05.849Z,99740.66
2023-04-18T07:00:32.581Z,99741.16
2023-04-18T07:02:59.364Z,99738.84
2023-04-18T07:05:26.096Z,99736.41
2023-04-18T07:07:52.652Z,99741.16
2023-04-18T07:10:19.355Z,99741.72
2023-04-18T07:12:45.903Z,99739.44
2023-04-18T07:15:12.508Z,99740.94
2023-04-18T07:17:39.265Z,99748.44
2023-04-18T07:20:06.553Z,99747.81
2023-04-18T07:22:33.155Z,99752.88
2023-04-18T07:24:59.770Z,99738.44
2023-04-18T07:27:26.877Z,99742.19
2023-04-18T07:29:53.506Z,99737.47
2023-04-18T07:32:20.136Z,99737.38
2023-04-18T07:34:46.996Z,99746.44
2023-04-18T07:37:14.903Z,99738.53
2023-04-18T07:39:41.779Z,99736.34
2023-04-18T07:42:08.517Z,99732.50
2023-04-18T07:44:35.788Z,99742.13
2023-04-18T07:47:02.967Z,99735.19
2023-04-18T07:49:29.610Z,99741.72
2023-04-18T07:51:56.258Z,99744.25
2023-04-18T07:54:23.000Z,99740.91
2023-04-18T07:56:49.599Z,99739.00
2023-04-18T07:59:16.621Z,99736.75
2023-04-18T08:01:43.502Z,99736.50
2023-04-18T08:04:10.189Z,99740.44
2023-04-18T08:06:37.013Z,99746.09
2023-04-18T08:09:06.676Z,99734.00
2023-04-18T08:11:33.653Z,99744.22
2023-04-18T08:14:00.823Z,99746.06
2023-04-18T08:16:27.666Z,99743.94
2023-04-18T08:18:54.269Z,99736.50
2023-04-18T08:21:21.228Z,99741.13
2023-04-18T08:23:47.867Z,99745.22
2023-04-18T08:26:14.501Z,99750.38
2023-04-18T08:28:46.376Z,99744.22
2023-04-18T08:31:14.746Z,99747.28
2023-04-18T08:33:41.578Z,99734.50
2023-04-18T08:36:08.518Z,99747.69
2023-04-18T08:38:35.352Z,99751.06
2023-04-18T08:41:01.868Z,99750.94
2023-04-18T08:43:30.284Z,99750.88
2023-04-18T08:46:00.727Z,99753.44
2023-04-18T08:48:30.658Z,99750.91
2023-04-18T08:50:59.042Z,99750.78
2023-04-18T08:53:27.112Z,99745.88
2023-04-18T08:55:56.310Z,99751.13
2023-04-18T08:58:23.534Z,99762.09
2023-04-18T09:00:54.089Z,99755.50
2023-04-18T09:03:40.618Z,99755.56
2023-04-18T09:06:13.847Z,99755.22
2023-04-18T09:08:42.398Z,99753.16
2023-04-18T09:11:34.380Z,99754.84
2023-04-18T09:14:02.610Z,99751.28
2023-04-18T09:16:46.976Z,99748.97
2023-04-18T09:19:18.866Z,99752.91
2023-04-18T09:21:48.919Z,99760.81
2023-04-18T09:24:17.673Z,99746.91
2023-04-18T09:26:44.362Z,99749.31
2023-04-18T09:29:10.959Z,99750.91
2023-04-18T09:31:53.850Z,99751.13
2023-04-18T09:34:25.106Z,99762.03
2023-04-18T09:37:14.447Z,99748.00
2023-04-18T09:39:43.740Z,99754.19
2023-04-18T09:42:10.742Z,99745.78
2023-04-18T09:44:38.494Z,99754.69
2023-04-18T09:47:07.750Z,99746.09
2023-04-18T09:49:34.848Z,99744.91
2023-04-18T09:52:06.530Z,99747.38
2023-04-18T09:54:35.919Z,99748.75
2023-04-18T09:57:04.363Z,99748.81
2023-04-18T09:59:39.803Z,99749.94
2023-04-18T10:02:14.697Z,99740.50
2023-04-18T10:04:44.003Z,99745.38
2023-04-18T10:07:11.343Z,99738.94
2023-04-18T10:09:40.223Z,99732.19
2023-04-18T10:12:07.185Z,99736.13
2023-04-18T10:14:34.733Z,99731.41
2023-04-18T10:17:01.623Z,99735.25
2023-04-18T10:19:30.240Z,99730.13
2023-04-18T10:21:58.996Z,99733.06
2023-04-18T10:24:50.413Z,99735.41
2023-04-18T10:27:17.772Z,99728.28
2023-04-18T10:29:51.836Z,99722.72
2023-04-18T10:32:19.613Z,99726.91
2023-04-18T10:34:47.264Z,99727.44
2023-04-18T10:37:14.824Z,99723.06
2023-04-18T10:40:06.622Z,99715.78
2023-04-18T10:42:48.431Z,99713.16
2023-04-18T10:45:19.024Z,99705.50
2023-04-18T10:47:45.696Z,99709.38
2023-04-18T10:50:12.824Z,99709.00
2023-04-18T10:52:39.485Z,99699.81
2023-04-18T10:55:24.576Z,99707.38
2023-04-18T10:57:51.590Z,99704.31
2023-04-18T11:00:21.521Z,99703.47
2023-04-18T11:02:59.316Z,99700.19
2023-04-18T11:05:27.982Z,99691.94
2023-04-18T11:07:55.387Z,99692.91
2023-04-18T11:10:25.559Z,99703.13
2023-04-18T11:12:53.149Z,99697.16
2023-04-18T11:15:23.898Z,99700.53
2023-04-18T11:17:58.054Z,99696.78
2023-04-18T11:20:25.630Z,99699.38
2023-04-18T11:23:00.281Z,99698.28
2023-04-18T11:25:36.367Z,99697.13
2023-04-18T11:28:04.664Z,99694.13
2023-04-18T11:30:41.512Z,99691.16
2023-04-18T11:33:09.538Z,99682.06
2023-04-18T11:35:43.284Z,99679.16
2023-04-18T11:38:13.510Z,99684.59
2023-04-18T11:40:47.650Z,99683.03
2023-04-18T11:43:23.543Z,99680.81
2023-04-18T11:45:59.203Z,99677.63
2023-04-18T11:48:36.892Z,99678.09
2023-04-18T11:51:05.082Z,99673.75
2023-04-18T11:53:36.056Z,99676.81
2023-04-18T11:56:03.934Z,99682.53
2023-04-18T11:58:32.997Z,99679.19
2023-04-18T12:01:16.207Z,99669.13
2023-04-18T12:03:44.130Z,99674.34
2023-04-18T12:06:11.074Z,99673.84
2023-04-18T12:08:37.901Z,99672.53
2023-04-18T12:11:04.522Z,99674.50
2023-04-18T12:13:32.392Z,99673.84
2023-04-18T12:16:02.314Z,99676.94
2023-04-18T12:18:29.954Z,99665.03
2023-04-18T12:20:58.606Z,99665.56
2023-04-18T12:23:51.908Z,99668.69
2023-04-18T12:26:18.385Z,99669.56
2023-04-18T12:28:46.462Z,99667.03
2023-04-18T12:31:13.308Z,99671.41
2023-04-18T12:33:39.826Z,99667.50
2023-04-18T12:36:08.499Z,99667.75
2023-04-18T12:38:35.778Z,99663.03
2023-04-18T12:41:02.388Z,99658.22
2023-04-18T12:43:28.992Z,99658.56
2023-04-18T12:45:55.930Z,99657.06
2023-04-18T12:48:22.661Z,99647.75
2023-04-18T12:50:49.210Z,99662.53
2023-04-18T12:53:15.818Z,99650.16
2023-04-18T12:55:42.469Z,99646.75
2023-04-18T12:58:08.942Z,99655.06
2023-04-18T13:00:35.902Z,99641.75
2023-04-18T13:03:02.937Z,99643.38
2023-04-18T13:05:33.009Z,99646.84
2023-04-18T13:08:12.764Z,99641.94
2023-04-18T13:10:43.360Z,99635.06
2023-04-18T13:13:10.072Z,99636.09
2023-04-18T13:15:36.790Z,99632.59
2023-04-18T13:18:06.310Z,99628.63
2023-04-18T13:20:34.214Z,99633.84
2023-04-18T13:23:03.132Z,99619.44
2023-04-18T13:25:29.729Z,99628.09
2023-04-18T13:27:58.481Z,99634.03
2023-04-18T13:30:25.578Z,99630.41
2023-04-18T13:32:52.228Z,99612.47
2023-04-18T13:35:19.169Z,99626.22
2023-04-18T13:37:46.344Z,99628.34
2023-04-18T13:40:13.413Z,99617.19
2023-04-18T13:42:40.216Z,99619.34
2023-04-18T13:45:07.513Z,99627.38
2023-04-18T13:47:34.513Z,99620.63
2023-04-18T13:50:01.458Z,99616.84
2023-04-18T13:52:28.179Z,99612.63
2023-04-18T13:54:55.384Z,99615.84
2023-04-18T13:57:23.369Z,99611.25
2023-04-18T13:59:49.947Z,99612.63
2023-04-18T14:02:16.688Z,99617.19
2023-04-18T14:04:43.505Z,99605.19
2023-04-18T14:07:10.229Z,99612.00
2023-04-18T14:09:36.771Z,99607.00
2023-04-18T14:12:07.654Z,99598.91
2023-04-18T14:14:34.295Z,99607.63
2023-04-18T14:17:00.882Z,99600.94
2023-04-18T14:19:27.558Z,99594.09
2023-04-18T14:21:54.156Z,99591.63
2023-04-18T14:24:20.786Z,99590.69
2023-04-18T14:26:48.104Z,99590.34
2023-04-18T14:29:14.895Z,99585.81
2023-04-18T14:31:41.961Z,99597.41
2023-04-18T14:34:09.784Z,99591.41
2023-04-18T14:36:36.926Z,99588.16
2023-04-18T14:39:03.708Z,99590.19
2023-04-18T14:41:30.476Z,99594.97
2023-04-18T14:43:56.995Z,99594.72
2023-04-18T14:46:23.712Z,99593.09
2023-04-18T14:48:50.969Z,99583.22
2023-04-18T14:51:17.525Z,99593.22
2023-04-18T14:53:44.944Z,99589.47
2023-04-18T14:56:11.828Z,99587.88
2023-04-18T14:58:38.525Z,99578.72
2023-04-18T15:01:05.474Z,99573.63
2023-04-18T15:03:32.596Z,99576.56
2023-04-18T15:05:59.407Z,99574.47
2023-04-18T15:08:26.117Z,99580.44
2023-04-18T15:10:52.634Z,99567.75
2023-04-18T15:13:19.502Z,99574.72
2023-04-18T15:15:53.419Z,99575.44
2023-04-18T15:18:20.435Z,99566.03
2023-04-18T15:20:47.487Z,99566.25
2023-04-18T15:23:14.807Z,99571.50
2023-04-18T15:25:42.467Z,99568.69
2023-04-18T15:28:09.198Z,99564.84
2023-04-18T15:30:36.089Z,99575.97
2023-04-18T15:33:02.827Z,99571.09
2023-04-18T15:35:29.404Z,99570.09
2023-04-18T15:37:56.627Z,99573.69
2023-04-18T15:40:23.880Z,99569.25
2023-04-18T15:42:51.051Z,99574.19
2023-04-18T15:45:17.697Z,99574.97
2023-04-18T15:47:44.286Z,99576.56
2023-04-18T15:50:11.271Z,99583.63
2023-04-18T15:52:38.374Z,99585.31
2023-04-18T15:55:05.409Z,99586.22
2023-04-18T15:57:32.417Z,99578.88
2023-04-18T15:59:59.650Z,99585.09
2023-04-18T16:02:26.962Z,99583.81
2023-04-18T16:04:53.600Z,99581.69
2023-04-18T16:07:20.584Z,99586.53
2023-04-18T16:09:47.098Z,99580.00
2023-04-18T16:12:13.711Z,99582.34
2023-04-18T16:14:40.460Z,99588.53
2023-04-18T16:17:07.137Z,99587.38
2023-04-18T16:19:36.211Z,99594.06
2023-04-18T16:22:02.969Z,99583.59
2023-04-18T16:24:30.314Z,99579.22
2023-04-18T16:26:57.033Z,99589.56
2023-04-18T16:29:23.873Z,99593.22
2023-04-18T16:31:51.678Z,99587.75
2023-04-18T16:34:18.595Z,99598.97
2023-04-18T16:36:45.315Z,99601.41
2023-04-18T16:39:12.318Z,99601.31
2023-04-18T16:41:39.133Z,99599.16
2023-04-18T16:44:05.905Z,99596.41
2023-04-18T16:46:32.598Z,99597.91
2023-04-18T16:48:59.454Z,99606.88
2023-04-18T16:51:26.523Z,99609.97
2023-04-18T16:53:53.076Z,99604.41
2023-04-18T16:56:19.712Z,99603.16
2023-04-18T16:58:46.554Z,99603.09
2023-04-18T17:01:13.096Z,99604.84
2023-04-18T17:03:39.890Z,99603.50
2023-04-18T17:06:07.008Z,99603.63
2023-04-18T17:08:34.212Z,99611.13
2023-04-18T17:11:02.296Z,99607.03
2023-04-18T17:13:31.486Z,99606.66
2023-04-18T17:15:58.621Z,99610.41
2023-04-18T17:18:25.366Z,99610.72
2023-04-18T17:20:52.500Z,99614.50
2023-04-18T17:23:19.346Z,99618.03
2023-04-18T17:25:46.274Z,99621.94
2023-04-18T17:28:13.929Z,99627.13
2023-04-18T17:30:43.771Z,99634.91
2023-04-18T17:33:11.007Z,99629.97
2023-04-18T17:35:40.944Z,99638.72
2023-04-18T17:38:08.181Z,99636.25
2023-04-18T17:40:35.309Z,99635.09
2023-04-18T17:43:01.946Z,99639.94
2023-04-18T17:45:28.522Z,99636.94
2023-04-18T17:47:57.572Z,99639.75
2023-04-18T17:50:24.414Z,99649.28
2023-04-18T17:52:50.973Z,99648.19
2023-04-18T17:55:17.548Z,99660.78
2023-04-18T17:57:44.168Z,99660.06
2023-04-18T18:00:13.439Z,99646.63
2023-04-18T18:02:42.394Z,99656.91
2023-04-18T18:05:14.934Z,99657.00
2023-04-18T18:07:45.864Z,99652.78
2023-04-18T18:10:15.124Z,99658.69
2023-04-18T18:12:41.930Z,99658.78
2023-04-18T18:15:08.968Z,99660.13
2023-04-18T18:17:35.513Z,99662.69
2023-04-18T18:20:02.109Z,99671.69
2023-04-18T18:22:28.676Z,99680.50
2023-04-18T18:24:55.369Z,99676.06
2023-04-18T18:27:21.926Z,99678.81
2023-04-18T18:29:50.095Z,99689.88
2023-04-18T18:32:16.807Z,99685.13
2023-04-18T18:34:43.335Z,99690.69
2023-04-18T18:37:10.003Z,99679.91
2023-04-18T18:39:36.723Z,99689.75
2023-04-18T18:42:03.402Z,99694.41
2023-04-18T18:44:30.588Z,99694.31
2023-04-18T18:46:57.640Z,99692.84
2023-04-18T18:49:24.226Z,99697.13
2023-04-18T18:51:50.732Z,99698.91
2023-04-18T18:54:17.314Z,99698.75
2023-04-18T18:56:45.269Z,99706.31
2023-04-18T18:59:11.924Z,99707.44
2023-04-18T19:01:38.574Z,99711.81
2023-04-18T19:04:05.693Z,99715.34
2023-04-18T19:06:32.490Z,99718.16
2023-04-18T19:08:59.153Z,99720.34
2023-04-18T19:11:26.865Z,99732.69
2023-04-18T19:13:53.888Z,99727.06
2023-04-18T19:16:20.566Z,99731.63
2023-04-18T19:18:49.317Z,99731.94
2023-04-18T19:21:16.791Z,99737.25
2023-04-18T19:23:43.688Z,99738.91
2023-04-18T19:26:10.572Z,99741.81
2023-04-18T19:28:37.408Z,99759.00
2023-04-18T19:31:04.013Z,99755.00
2023-04-18T19:33:30.745Z,99762.41
2023-04-18T19:35:57.282Z,99763.72
2023-04-18T19:38:23.959Z,99758.88
2023-04-18T19:40:50.775Z,99758.91
2023-04-18T19:43:17.330Z,99774.69
2023-04-18T19:45:44.586Z,99761.03
2023-04-18T19:48:11.911Z,99765.66
2023-04-18T19:50:42.239Z,99767.41
2023-04-18T19:53:09.087Z,99763.66
2023-04-18T19:55:36.040Z,99762.88
2023-04-18T19:58:02.611Z,99768.94
2023-04-18T20:00:30.476Z,99763.66
2023-04-18T20:02:58.887Z,99776.69
2023-04-18T20:05:25.697Z,99781.56
2023-04-18T20:07:52.466Z,99775.09
2023-04-18T20:10:21.354Z,99779.38
2023-04-18T20:12:49.933Z,99789.72
2023-04-18T20:15:16.926Z,99779.97
2023-04-18T20:17:43.664Z,99786.53
2023-04-18T20:20:11.506Z,99789.84
2023-04-18T20:22:40.307Z,99791.19
2023-04-18T20:25:07.351Z,99793.34
2023-04-18T20:27:33.887Z,99796.53
2023-04-18T20:30:00.508Z,99794.38
2023-04-18T20:32:27.712Z,99807.25
2023-04-18T20:34:54.676Z,99812.63
2023-04-18T20:37:21.621Z,99810.66
2023-04-18T20:39:48.346Z,99809.09
2023-04-18T20:42:14.960Z,99818.47
2023-04-18T20:44:46.824Z,99828.16
2023-04-18T20:47:15.813Z,99823.09
2023-04-18T20:49:42.609Z,99821.88
2023-04-18T20:52:09.714Z,99832.22
2023-04-18T20:54:36.448Z,99839.50
2023-04-18T20:57:03.191Z,99833.38
2023-04-18T20:59:29.768Z,99833.66
2023-04-18T21:01:56.509Z,99841.81
2023-04-18T21:04:23.394Z,99840.00
2023-04-18T21:06:50.650Z,99838.81
2023-04-18T21:09:17.299Z,99846.47
2023-04-18T21:11:43.877Z,99837.34
2023-04-18T21:14:10.847Z,99836.13
2023-04-18T21:16:39.536Z,99848.25
2023-04-18T21:19:06.918Z,99846.56
2023-04-18T21:21:34.415Z,99838.72
2023-04-18T21:24:02.063Z,99828.94
2023-04-18T21:26:28.771Z,99823.13
2023-04-18T21:29:00.496Z,99824.78
2023-04-18T21:31:30.010Z,99811.72
2023-04-18T21:33:58.123Z,99799.78
2023-04-18T21:36:26.961Z,99807.03
2023-04-18T21:38:55.145Z,99802.75
2023-04-18T21:41:22.313Z,99798.31
2023-04-18T21:43:49.398Z,99806.66
2023-04-18T21:46:16.265Z,99807.06
2023-04-18T21:48:45.157Z,99803.78
2023-04-18T21:51:15.157Z,99803.75
2023-04-18T21:53:42.233Z,99807.13
2023-04-18T21:56:09.334Z,99801.94
2023-04-18T21:58:35.920Z,99805.69
2023-04-18T22:01:03.251Z,99807.31
2023-04-18T22:03:30.251Z,99811.28
2023-04-18T22:05:57.611Z,99806.16
2023-04-18T22:08:28.373Z,99801.81
2023-04-18T22:10:57.656Z,99796.72
2023-04-18T22:13:25.341Z,99803.13
2023-04-18T22:15:51.999Z,99799.28
2023-04-18T22:18:19.016Z,99799.81
2023-04-18T22:20:47.283Z,99801.47
2023-04-18T22:23:14.128Z,99801.31
2023-04-18T22:25:40.991Z,99796.28
2023-04-18T22:28:07.763Z,99802.16
2023-04-18T22:30:34.628Z,99809.09
2023-04-18T22:33:01.414Z,99808.69
2023-04-18T22:35:28.151Z,99813.19
2023-04-18T22:37:55.681Z,99810.31
2023-04-18T22:40:22.245Z,99807.22
2023-04-18T22:42:48.825Z,99807.69
2023-04-18T22:45:15.684Z,99801.44
2023-04-18T22:47:42.332Z,99791.31
2023-04-18T22:50:09.453Z,99796.78
2023-04-18T22:52:36.162Z,99789.84
2023-04-18T22:55:03.153Z,99789.59
2023-04-18T22:57:29.878Z,99789.28
2023-04-18T22:59:56.616Z,99798.13
2023-04-18T23:02:23.402Z,99800.97
2023-04-18T23:04:50.616Z,99805.97
2023-04-18T23:07:17.341Z,99807.25
2023-04-18T23:09:44.899Z,99807.72
2023-04-18T23:12:11.458Z,99801.03
2023-04-18T23:14:38.965Z,99802.16
2023-04-18T23:17:05.669Z,99801.66
2023-04-18T23:19:32.184Z,99811.28
2023-04-18T23:21:59.998Z,99814.19
2023-04-18T23:24:26.861Z,99812.00
2023-04-18T23:26:53.421Z,99820.38
2023-04-18T23:29:20.062Z,99815.91
2023-04-18T23:31:46.689Z,99813.94
2023-04-18T23:34:13.527Z,99818.00
2023-04-18T23:36:40.686Z,99817.63
2023-04-18T23:39:08.671Z,99827.81
2023-04-18T23:41:35.213Z,99829.94
2023-04-18T23:44:02.177Z,99818.38
2023-04-18T23:46:28.771Z,99816.81
2023-04-18T23:48:55.352Z,99828.06
2023-04-18T23:51:22.516Z,99821.56
2023-04-18T23:53:49.103Z,99826.34
2023-04-18T23:56:15.956Z,99826.94
2023-04-18T23:58:42.546Z,99830.31
